TimeCDT,TemperatureF,Dew PointF,Humidity,Sea Level PressureIn,VisibilityMPH,Wind Direction,Wind SpeedMPH,Gust SpeedMPH,PrecipitationIn,Events,Conditions,WindDirDegrees,DateUTC
12:03 AM,64.4,62.6,94,29.87,0.5,Calm,Calm,-,N/A,Fog,Fog,0,2013-09-26 05:03:00
12:20 AM,62.6,60.8,94,29.87,2.5,Calm,Calm,-,N/A,,Clear,0,2013-09-26 05:20:00
12:27 AM,62.6,60.8,94,29.87,10.0,Calm,Calm,-,N/A,,Clear,0,2013-09-26 05:27:00
12:49 AM,62.6,60.8,94,29.87,2.0,Calm,Calm,-,N/A,,Clear,0,2013-09-26 05:49:00
12:53 AM,63.0,61.0,93,29.86,3.0,Calm,Calm,-,N/A,,Clear,0,2013-09-26 05:53:00
12:59 AM,62.6,60.8,94,29.87,1.2,Calm,Calm,-,N/A,,Clear,0,2013-09-26 05:59:00
1:05 AM,62.6,60.8,94,29.87,0.2,Calm,Calm,-,N/A,Fog,Fog,0,2013-09-26 06:05:00
1:14 AM,62.6,60.8,94,29.87,0.2,Calm,Calm,-,N/A,Fog,Fog,0,2013-09-26 06:14:00
1:33 AM,62.6,60.8,94,29.87,0.5,Calm,Calm,-,N/A,Fog,Fog,0,2013-09-26 06:33:00
1:40 AM,60.8,60.8,100,29.87,0.2,Calm,Calm,-,N/A,Fog,Fog,0,2013-09-26 06:40:00
1:48 AM,62.6,60.8,94,29.87,1.0,Calm,Calm,-,N/A,,Mist,0,2013-09-26 06:48:00
1:53 AM,63.0,62.1,97,29.87,1.8,Calm,Calm,-,N/A,,Scattered Clouds,0,2013-09-26 06:53:00
1:56 AM,62.6,62.6,100,29.88,2.0,Calm,Calm,-,N/A,,Mostly Cloudy,0,2013-09-26 06:56:00
2:01 AM,64.4,62.6,94,29.88,0.8,Calm,Calm,-,N/A,,Mist,0,2013-09-26 07:01:00
2:10 AM,62.6,60.8,94,29.88,0.2,Calm,Calm,-,N/A,Fog,Fog,0,2013-09-26 07:10:00
2:20 AM,60.8,59.0,94,29.88,0.5,Calm,Calm,-,N/A,Fog,Fog,0,2013-09-26 07:20:00
2:46 AM,62.6,60.8,94,29.88,0.8,Calm,Calm,-,N/A,,Mist,0,2013-09-26 07:46:00
2:53 AM,62.1,60.1,93,29.87,2.5,Calm,Calm,-,N/A,,Overcast,0,2013-09-26 07:53:00
3:06 AM,60.8,59.0,94,29.88,0.8,Calm,Calm,-,N/A,,Mist,0,2013-09-26 08:06:00
3:16 AM,60.8,59.0,94,29.89,1.0,Calm,Calm,-,N/A,,Mist,0,2013-09-26 08:16:00
3:21 AM,60.8,59.0,94,29.89,0.2,Calm,Calm,-,N/A,Fog,Fog,0,2013-09-26 08:21:00
3:53 AM,61.0,59.0,93,29.88,0.2,Calm,Calm,-,N/A,Fog,Fog,0,2013-09-26 08:53:00
4:53 AM,60.1,57.9,93,29.91,0.2,Calm,Calm,-,N/A,Fog,Fog,0,2013-09-26 09:53:00
5:41 AM,60.8,59.0,94,29.92,0.5,Calm,Calm,-,N/A,Fog,Fog,0,2013-09-26 10:41:00
5:53 AM,60.1,59.0,96,29.92,0.2,Calm,Calm,-,N/A,Fog,Fog,0,2013-09-26 10:53:00
6:53 AM,60.1,57.9,93,29.94,0.2,Calm,Calm,-,N/A,Fog,Fog,0,2013-09-26 11:53:00
7:18 AM,60.8,59.0,94,29.96,0.2,Calm,Calm,-,N/A,Fog,Fog,0,2013-09-26 12:18:00
7:53 AM,64.0,62.1,93,29.96,0.2,Calm,Calm,-,N/A,Fog,Fog,0,2013-09-26 12:53:00
7:58 AM,64.4,62.6,94,29.97,1.0,Calm,Calm,-,N/A,,Mist,0,2013-09-26 12:58:00
8:02 AM,64.4,62.6,94,29.98,4.0,Calm,Calm,-,N/A,,Scattered Clouds,0,2013-09-26 13:02:00
8:53 AM,70.0,66.0,87,29.98,6.0,Calm,Calm,-,N/A,,Clear,0,2013-09-26 13:53:00
9:53 AM,75.0,66.0,73,29.99,10.0,Calm,Calm,-,N/A,,Clear,0,2013-09-26 14:53:00
10:53 AM,78.1,64.9,64,29.99,10.0,East,5.8,-,N/A,,Clear,90,2013-09-26 15:53:00
11:53 AM,80.1,64.9,60,29.99,10.0,Variable,3.5,-,N/A,,Mostly Cloudy,0,2013-09-26 16:53:00
12:53 PM,80.1,63.0,56,29.98,10.0,ESE,6.9,-,N/A,,Scattered Clouds,110,2013-09-26 17:53:00
1:53 PM,82.0,64.0,54,29.96,10.0,East,8.1,-,N/A,,Partly Cloudy,90,2013-09-26 18:53:00
2:53 PM,82.9,62.1,49,29.96,10.0,East,5.8,-,N/A,,Mostly Cloudy,100,2013-09-26 19:53:00
3:53 PM,82.9,62.1,49,29.95,10.0,ENE,5.8,-,N/A,,Clear,70,2013-09-26 20:53:00
4:53 PM,82.0,61.0,49,29.96,10.0,East,4.6,-,N/A,,Clear,80,2013-09-26 21:53:00
5:53 PM,79.0,64.0,60,29.96,10.0,ESE,3.5,-,N/A,,Clear,110,2013-09-26 22:53:00
6:53 PM,72.0,63.0,73,29.97,10.0,Calm,Calm,-,N/A,,Clear,0,2013-09-26 23:53:00
7:53 PM,68.0,63.0,84,29.98,10.0,Calm,Calm,-,N/A,,Clear,0,2013-09-27 00:53:00
8:53 PM,66.0,63.0,90,30.00,9.0,Calm,Calm,-,N/A,,Clear,0,2013-09-27 01:53:00
9:53 PM,64.0,62.1,93,30.00,6.0,Calm,Calm,-,N/A,,Clear,0,2013-09-27 02:53:00
10:53 PM,64.0,61.0,90,30.00,8.0,Calm,Calm,-,N/A,,Clear,0,2013-09-27 03:53:00
11:15 PM,62.6,60.8,94,30.02,1.8,Calm,Calm,-,N/A,,Clear,0,2013-09-27 04:15:00
11:23 PM,62.6,60.8,94,30.02,3.0,Calm,Calm,-,N/A,,Clear,0,2013-09-27 04:23:00
11:30 PM,62.6,60.8,94,30.02,2.0,Calm,Calm,-,N/A,,Clear,0,2013-09-27 04:30:00
11:36 PM,62.6,60.8,94,30.02,0.8,Calm,Calm,-,N/A,,Clear,0,2013-09-27 04:36:00
11:53 PM,61.0,59.0,93,30.01,1.0,Calm,Calm,-,N/A,,Clear,0,2013-09-27 04:53:00
11:56 PM,60.8,59.0,94,30.02,4.0,Calm,Calm,-,N/A,,Clear,0,2013-09-27 04:56:00